Time;durP1;ratioP1;P1;durP2;ratioP2;P2;SDS_P1;SDS_P2;PMS_P1;PMS_P2;Temp;Humidity;BMP_temperature;BMP_pressure;BME280_temperature;BME280_humidity;BME280_pressure;Samples;Min_cycle;Max_cycle;Signal;HPM_P1;HPM_P2
2022/11/01 00:00:49;;;;;;;16.23;8.95;;;;;;;13.36;nan;100422.47;5094186;28;20096;-70
2022/11/01 00:03:14;;;;;;;12.23;7.93;;;;;;;13.38;nan;100401.91;5092481;28;20047;-69
2022/11/01 00:05:39;;;;;;;10.13;6.53;;;;;;;13.37;nan;100393.09;5091151;28;20040;-69
2022/11/01 00:08:05;;;;;;;13.48;7.93;;;;;;;13.36;nan;100396.75;5108161;28;20273;-69
2022/11/01 00:10:30;;;;;;;9.02;6.45;;;;;;;13.37;nan;100390.44;5096161;28;20046;-70
2022/11/01 00:12:55;;;;;;;12.17;7.33;;;;;;;13.41;nan;100398.06;5086757;28;20044;-69
2022/11/01 00:15:21;;;;;;;11.88;7.95;;;;;;;13.42;nan;100403.22;5068103;28;20638;-69
2022/11/01 00:17:46;;;;;;;12.13;7.77;;;;;;;13.42;nan;100405.88;5065527;28;20032;-69
2022/11/01 00:20:11;;;;;;;13.77;9.20;;;;;;;13.43;nan;100419.97;5061106;28;20296;-70
2022/11/01 00:22:36;;;;;;;13.02;7.65;;;;;;;13.45;nan;100407.34;5084407;28;20284;-69
2022/11/01 00:25:02;;;;;;;11.00;7.38;;;;;;;13.44;nan;100409.16;5085842;28;20028;-69
2022/11/01 00:27:27;;;;;;;11.65;8.15;;;;;;;13.44;nan;100422.44;5086373;28;20515;-69
2022/11/01 00:29:52;;;;;;;11.15;7.93;;;;;;;13.41;nan;100408.69;5087528;28;20352;-69
2022/11/01 00:32:17;;;;;;;11.50;7.27;;;;;;;13.43;nan;100417.31;5087441;28;20505;-70
2022/11/01 00:34:43;;;;;;;10.70;7.30;;;;;;;13.43;nan;100417.31;5088400;28;20300;-70
2022/11/01 00:37:08;;;;;;;10.77;7.30;;;;;;;13.43;nan;100418.13;5070859;28;20285;-69
2022/11/01 00:39:33;;;;;;;11.30;7.50;;;;;;;13.43;nan;100423.44;5088477;28;20065;-69
2022/11/01 00:41:58;;;;;;;10.60;6.97;;;;;;;13.43;nan;100423.44;5088591;28;20762;-70
2022/11/01 00:44:24;;;;;;;11.52;7.70;;;;;;;13.45;nan;100417.97;5087645;28;20290;-70
2022/11/01 00:46:49;;;;;;;11.90;7.75;;;;;;;13.46;nan;100411.66;5088327;28;20065;-69
2022/11/01 00:49:14;;;;;;;15.43;8.30;;;;;;;13.47;nan;100413.31;5087977;28;20067;-70
2022/11/01 00:51:39;;;;;;;14.23;8.85;;;;;;;13.43;nan;100410.16;5087980;28;20274;-70
2022/11/01 00:54:05;;;;;;;14.77;9.30;;;;;;;13.46;nan;100409.00;5088493;28;20447;-70
2022/11/01 00:56:30;;;;;;;12.93;8.43;;;;;;;13.47;nan;100403.50;5089082;28;20039;-70
2022/11/01 00:58:55;;;;;;;10.80;7.10;;;;;;;13.49;nan;100392.69;5088555;28;20032;-70
2022/11/01 01:01:21;;;;;;;11.93;7.32;;;;;;;13.51;nan;100391.53;5069689;28;20321;-70
2022/11/01 01:03:46;;;;;;;12.10;8.00;;;;;;;13.56;nan;100383.88;5088060;28;20416;-70
2022/11/01 01:06:11;;;;;;;12.82;7.43;;;;;;;13.60;nan;100384.34;5093487;28;20121;-70
2022/11/01 01:08:37;;;;;;;10.07;6.30;;;;;;;13.61;nan;100383.34;5087723;28;20155;-70
2022/11/01 01:11:02;;;;;;;9.83;6.33;;;;;;;13.62;nan;100377.03;5068849;28;20270;-69
2022/11/01 01:13:27;;;;;;;12.10;7.80;;;;;;;13.63;nan;100383.16;5087543;28;20270;-69
2022/11/01 01:15:52;;;;;;;8.88;6.30;;;;;;;13.65;nan;100371.34;5086916;28;20040;-70
2022/11/01 01:18:18;;;;;;;11.32;8.00;;;;;;;13.70;nan;100368.16;5087172;28;20032;-70
2022/11/01 01:20:43;;;;;;;13.38;8.73;;;;;;;13.75;nan;100363.16;5086872;28;20028;-69
2022/11/01 01:23:08;;;;;;;12.60;8.13;;;;;;;13.84;nan;100362.09;5097339;28;20036;-69
2022/11/01 01:25:36;;;;;;;11.63;7.65;;;;;;;13.92;nan;100367.38;5090922;28;20507;-70
2022/11/01 01:28:02;;;;;;;9.40;7.25;;;;;;;13.98;nan;100356.00;5089275;28;20655;-69
2022/11/01 01:30:27;;;;;;;9.68;6.60;;;;;;;13.99;nan;100349.69;5088643;28;20039;-69
2022/11/01 01:32:52;;;;;;;12.48;6.45;;;;;;;14.05;nan;100363.28;5088742;28;20373;-70
2022/11/01 01:35:18;;;;;;;9.88;6.97;;;;;;;14.09;nan;100365.41;5089145;28;20032;-70
2022/11/01 01:37:43;;;;;;;11.23;7.00;;;;;;;14.17;nan;100368.00;5088193;28;20381;-69
2022/11/01 01:40:09;;;;;;;9.50;6.32;;;;;;;14.23;nan;100363.81;5090130;28;20112;-70
2022/11/01 01:42:37;;;;;;;11.65;7.43;;;;;;;14.29;nan;100357.75;5089520;28;20036;-70
2022/11/01 01:45:29;;;;;;;11.60;7.68;;;;;;;14.39;nan;100371.63;5081869;28;20062;-70
2022/11/01 01:48:01;;;;;;;12.10;7.00;;;;;;;14.44;nan;100366.59;5090572;28;20554;-70
2022/11/01 01:50:33;;;;;;;12.68;7.70;;;;;;;14.50;nan;100364.22;5071860;28;20040;-70
2022/11/01 01:53:07;;;;;;;12.68;8.02;;;;;;;14.56;nan;100355.53;5073065;28;20089;-69
2022/11/01 01:55:44;;;;;;;13.93;8.02;;;;;;;14.73;nan;100358.84;5090470;28;20119;-69
2022/11/01 01:58:12;;;;;;;10.20;6.68;;;;;;;14.79;nan;100358.94;5088483;28;20028;-70
2022/11/01 02:00:38;;;;;;;11.77;7.00;;;;;;;14.84;nan;100361.06;5071752;28;20028;-69
2022/11/01 02:03:05;;;;;;;15.15;8.05;;;;;;;14.90;nan;100354.16;5089525;28;20081;-69
2022/11/01 02:05:39;;;;;;;13.98;7.95;;;;;;;14.97;nan;100358.59;5096725;28;20553;-69
2022/11/01 02:08:05;;;;;;;13.20;7.78;;;;;;;14.99;nan;100355.72;5089542;28;20044;-69
2022/11/01 02:10:31;;;;;;;12.95;7.38;;;;;;;15.02;nan;100355.38;5089641;28;20411;-69
2022/11/01 02:12:57;;;;;;;9.23;6.57;;;;;;;15.06;nan;100348.63;5089191;28;20115;-69
2022/11/01 02:15:28;;;;;;;11.93;6.78;;;;;;;15.07;nan;100345.81;5088790;28;20134;-70
2022/11/01 02:18:17;;;;;;;10.15;6.78;;;;;;;15.10;nan;100341.94;5071394;28;20032;-70
2022/11/01 02:21:04;;;;;;;11.57;7.13;;;;;;;15.14;nan;100353.88;5089871;28;20036;-70
2022/11/01 02:24:11;;;;;;;11.25;6.72;;;;;;;15.15;nan;100360.03;5077927;28;20028;-70
2022/11/01 02:26:56;;;;;;;10.50;6.88;;;;;;;15.16;nan;100357.19;5109932;28;20044;-70
2022/11/01 02:29:37;;;;;;;13.10;7.18;;;;;;;15.16;nan;100353.69;5091371;28;20070;-69
2022/11/01 02:32:38;;;;;;;13.87;7.37;;;;;;;15.15;nan;100350.19;5089404;28;20252;-69
2022/11/01 02:35:24;;;;;;;11.73;7.00;;;;;;;15.20;nan;100357.63;5051467;28;20040;-69
2022/11/01 02:38:04;;;;;;;9.30;6.28;;;;;;;15.19;nan;100356.00;5089136;28;20024;-69
2022/11/01 02:40:37;;;;;;;17.08;7.43;;;;;;;15.22;nan;100364.41;5071523;28;20032;-70
2022/11/01 02:43:11;;;;;;;11.77;6.90;;;;;;;15.29;nan;100370.66;5071618;28;20102;-69
2022/11/01 02:45:41;;;;;;;12.98;7.32;;;;;;;15.37;nan;100369.72;5088416;28;20044;-69
2022/11/01 02:48:06;;;;;;;14.63;7.47;;;;;;;15.42;nan;100377.16;5086943;28;20504;-70
2022/11/01 02:50:37;;;;;;;9.23;6.63;;;;;;;15.48;nan;100379.91;5086262;28;20060;-69
2022/11/01 02:53:03;;;;;;;10.98;7.07;;;;;;;15.51;nan;100384.84;5088409;28;20058;-70
2022/11/01 02:55:29;;;;;;;14.30;7.38;;;;;;;15.56;nan;100399.44;5089151;28;20087;-69
2022/11/01 02:57:57;;;;;;;14.23;7.90;;;;;;;15.45;nan;100409.59;5089454;28;20043;-69
2022/11/01 03:00:27;;;;;;;14.57;8.18;;;;;;;15.31;nan;100423.75;5088749;28;20121;-71
2022/11/01 03:03:03;;;;;;;16.25;7.75;;;;;;;15.06;nan;100429.38;5068930;28;20042;-69
2022/11/01 03:05:37;;;;;;;21.65;8.88;;;;;;;14.86;nan;100438.91;5083318;28;20104;-69
2022/11/01 03:08:08;;;;;;;13.70;8.98;;;;;;;14.71;nan;100440.72;5089032;28;20036;-69
2022/11/01 03:10:48;;;;;;;16.67;9.07;;;;;;;14.61;nan;100462.25;5088202;28;20312;-69
2022/11/01 03:13:35;;;;;;;14.55;8.48;;;;;;;14.50;nan;100470.66;5085906;28;20150;-69
2022/11/01 03:16:21;;;;;;;19.48;10.05;;;;;;;14.36;nan;100472.25;5086312;28;20063;-69
2022/11/01 03:19:18;;;;;;;14.73;9.75;;;;;;;14.27;nan;100479.44;5084852;28;20551;-69
2022/11/01 03:21:58;;;;;;;20.08;10.32;;;;;;;14.15;nan;100489.66;5091274;28;20096;-70
2022/11/01 03:24:27;;;;;;;15.95;9.85;;;;;;;14.08;nan;100462.13;5079444;28;20031;-70
2022/11/01 03:27:04;;;;;;;18.15;11.30;;;;;;;14.01;nan;100456.69;5088361;28;20384;-70
2022/11/01 03:29:31;;;;;;;16.90;10.23;;;;;;;14.00;nan;100451.53;5088076;28;20081;-70
2022/11/01 03:31:59;;;;;;;16.33;9.25;;;;;;;14.02;nan;100455.69;5085797;28;20201;-70
2022/11/01 03:34:25;;;;;;;17.77;10.30;;;;;;;13.99;nan;100452.53;5085186;28;20123;-71
2022/11/01 03:36:55;;;;;;;16.90;10.52;;;;;;;13.99;nan;100448.06;5085352;28;20305;-70
2022/11/01 03:39:28;;;;;;;13.75;9.18;;;;;;;14.00;nan;100448.88;5085864;28;20043;-70
2022/11/01 03:41:58;;;;;;;17.35;10.05;;;;;;;14.00;nan;100446.22;5085678;28;20105;-70
2022/11/01 03:44:25;;;;;;;15.40;10.38;;;;;;;14.01;nan;100446.06;5066767;28;20032;-70
2022/11/01 03:46:51;;;;;;;15.40;10.35;;;;;;;13.97;nan;100441.28;5085430;28;20513;-70
2022/11/01 03:49:18;;;;;;;14.00;9.57;;;;;;;14.00;nan;100435.59;5085127;28;20083;-70
2022/11/01 03:51:43;;;;;;;15.20;10.02;;;;;;;14.01;nan;100445.22;5067886;28;20063;-70
2022/11/01 03:54:09;;;;;;;14.57;9.90;;;;;;;14.02;nan;100442.38;5086163;28;20036;-70
2022/11/01 03:56:36;;;;;;;14.30;9.98;;;;;;;14.03;nan;100446.69;5085080;28;20031;-70
2022/11/01 03:59:01;;;;;;;14.55;9.13;;;;;;;14.06;nan;100445.50;5084213;28;20487;-70
2022/11/01 04:01:26;;;;;;;16.00;8.85;;;;;;;14.08;nan;100443.50;5084769;28;20060;-70
2022/11/01 04:03:52;;;;;;;16.33;9.43;;;;;;;14.11;nan;100447.63;5066296;28;20032;-70
2022/11/01 04:06:17;;;;;;;12.97;8.53;;;;;;;14.09;nan;100445.19;5086136;28;20076;-71
2022/11/01 04:08:42;;;;;;;14.85;9.38;;;;;;;14.12;nan;100447.47;5085339;28;20278;-70
2022/11/01 04:11:07;;;;;;;15.02;9.18;;;;;;;14.13;nan;100442.97;5085345;28;20024;-70
2022/11/01 04:13:33;;;;;;;15.80;9.57;;;;;;;14.11;nan;100444.97;5063729;28;20056;-70
2022/11/01 04:21:29;;;;;;;15.55;9.77;;;;;;;14.21;nan;100465.03;5083963;28;20091;-70
2022/11/01 04:23:55;;;;;;;13.48;9.35;;;;;;;14.23;nan;100471.00;5069431;28;20036;-70
2022/11/01 04:26:22;;;;;;;14.45;9.25;;;;;;;14.21;nan;100465.03;5083131;28;20044;-70
2022/11/01 04:28:57;;;;;;;19.02;9.55;;;;;;;14.21;nan;100469.53;5085271;28;20040;-70
2022/11/01 04:31:26;;;;;;;13.70;9.57;;;;;;;14.18;nan;100470.72;5084709;28;20606;-70
2022/11/01 04:33:52;;;;;;;15.73;9.73;;;;;;;14.17;nan;100476.19;5084182;28;20024;-70
2022/11/01 04:36:17;;;;;;;15.48;9.48;;;;;;;14.18;nan;100484.00;5084172;28;20039;-70
2022/11/01 04:38:43;;;;;;;14.55;9.60;;;;;;;14.20;nan;100487.28;5085199;28;20392;-70
2022/11/01 04:41:08;;;;;;;14.38;8.27;;;;;;;14.21;nan;100488.97;5084507;28;20408;-70
2022/11/01 04:43:33;;;;;;;14.95;9.82;;;;;;;14.23;nan;100497.59;5080714;28;20074;-70
2022/11/01 04:45:59;;;;;;;12.90;8.73;;;;;;;14.24;nan;100493.94;5084820;28;20085;-70
2022/11/01 04:48:26;;;;;;;15.45;9.43;;;;;;;14.17;nan;100492.97;5083807;28;20058;-70
2022/11/01 04:50:51;;;;;;;16.33;9.73;;;;;;;14.12;nan;100483.88;5082542;28;20040;-70
2022/11/01 04:53:17;;;;;;;16.08;9.05;;;;;;;14.09;nan;100492.22;5084401;28;20493;-70
2022/11/01 04:55:42;;;;;;;14.93;9.57;;;;;;;14.02;nan;100490.25;5067536;28;20052;-70
2022/11/01 04:58:09;;;;;;;14.48;9.45;;;;;;;14.02;nan;100476.13;5087197;28;20105;-70
2022/11/01 05:00:36;;;;;;;17.00;10.27;;;;;;;13.99;nan;100455.19;5091672;28;20131;-70
2022/11/01 05:03:09;;;;;;;16.45;9.90;;;;;;;14.00;nan;100451.53;5090802;28;20492;-70
2022/11/01 05:05:35;;;;;;;16.88;10.00;;;;;;;13.95;nan;100462.72;5097986;28;20108;-70
2022/11/01 05:08:05;;;;;;;16.48;9.43;;;;;;;13.96;nan;100479.47;5090580;28;20086;-69
2022/11/01 05:10:32;;;;;;;16.67;9.68;;;;;;;13.94;nan;100471.69;5072691;28;20035;-70
2022/11/01 05:12:57;;;;;;;19.27;9.52;;;;;;;13.93;nan;100480.66;5090724;28;20153;-70
2022/11/01 05:15:23;;;;;;;14.95;9.70;;;;;;;13.96;nan;100506.88;5090706;28;20127;-70
2022/11/01 05:17:48;;;;;;;17.40;9.55;;;;;;;13.95;nan;100507.91;5091398;28;20408;-70
2022/11/01 05:20:13;;;;;;;14.52;8.70;;;;;;;13.91;nan;100509.25;5090341;28;20100;-70
2022/11/01 05:22:39;;;;;;;13.63;9.38;;;;;;;13.90;nan;100507.59;5093556;28;20491;-70
2022/11/01 05:25:04;;;;;;;19.58;9.63;;;;;;;13.86;nan;100508.94;5091946;28;20157;-70
2022/11/01 05:27:30;;;;;;;19.75;9.82;;;;;;;13.85;nan;100498.47;5081488;28;20047;-70
2022/11/01 05:29:55;;;;;;;16.67;9.38;;;;;;;13.84;nan;100523.41;5089756;28;20044;-70
2022/11/01 05:32:20;;;;;;;16.58;10.32;;;;;;;13.83;nan;100521.75;5071476;28;20088;-70
2022/11/01 05:34:48;;;;;;;15.73;9.55;;;;;;;13.77;nan;100533.91;5090893;28;20397;-70
2022/11/01 05:37:14;;;;;;;16.40;9.88;;;;;;;13.79;nan;100540.69;5089890;28;20047;-70
2022/11/01 05:39:39;;;;;;;17.77;9.52;;;;;;;13.76;nan;100543.69;5072220;28;20028;-70
2022/11/01 05:42:05;;;;;;;20.77;10.48;;;;;;;13.72;nan;100553.00;5089467;28;20534;-70
2022/11/01 05:44:30;;;;;;;16.20;9.50;;;;;;;13.68;nan;100550.88;5090914;28;20507;-70
2022/11/01 05:46:55;;;;;;;15.10;9.88;;;;;;;13.65;nan;100560.00;5088768;28;20274;-70
2022/11/01 05:49:21;;;;;;;18.15;9.60;;;;;;;13.61;nan;100558.72;5081782;28;20042;-70
2022/11/01 05:51:46;;;;;;;13.82;9.27;;;;;;;13.67;nan;100560.66;5086749;28;20370;-69
2022/11/01 05:54:12;;;;;;;14.05;8.85;;;;;;;13.69;nan;100563.16;5090314;28;20062;-70
2022/11/01 05:56:37;;;;;;;14.30;8.55;;;;;;;13.71;nan;100567.31;5089504;28;20047;-70
2022/11/01 05:59:02;;;;;;;13.82;8.88;;;;;;;13.69;nan;100564.00;5070425;28;20462;-69
2022/11/01 06:01:27;;;;;;;12.52;8.65;;;;;;;13.70;nan;100581.56;5088183;28;20043;-70
2022/11/01 06:03:53;;;;;;;11.70;8.52;;;;;;;13.72;nan;100576.94;5071547;28;20032;-69
2022/11/01 06:06:18;;;;;;;13.98;8.40;;;;;;;13.77;nan;100595.84;5099688;28;20039;-70
2022/11/01 06:08:43;;;;;;;11.73;8.15;;;;;;;13.75;nan;100589.03;5110005;28;20055;-70
2022/11/01 06:11:10;;;;;;;11.83;8.37;;;;;;;13.75;nan;100599.66;5099312;28;20066;-70
2022/11/01 06:13:35;;;;;;;11.70;8.07;;;;;;;13.76;nan;100602.16;5089933;28;20278;-70
2022/11/01 06:16:03;;;;;;;13.32;8.18;;;;;;;13.76;nan;100606.66;5090449;28;20462;-70
2022/11/01 06:18:29;;;;;;;12.35;8.07;;;;;;;13.76;nan;100609.31;5071571;28;20161;-70
2022/11/01 06:20:55;;;;;;;15.07;8.23;;;;;;;13.77;nan;100609.13;5088368;28;20095;-70
2022/11/01 06:23:20;;;;;;;13.27;8.55;;;;;;;13.82;nan;100616.59;5103154;28;20039;-70
2022/11/01 06:25:45;;;;;;;16.13;8.85;;;;;;;13.83;nan;100615.63;5089307;28;20037;-70
2022/11/01 06:28:11;;;;;;;12.55;7.82;;;;;;;13.87;nan;100619.59;5071229;28;20044;-70
2022/11/01 06:30:39;;;;;;;13.23;8.65;;;;;;;13.88;nan;100623.06;5071536;28;20097;-70
2022/11/01 06:33:06;;;;;;;12.52;8.25;;;;;;;13.85;nan;100626.91;5089409;28;20032;-70
2022/11/01 06:35:34;;;;;;;15.75;8.73;;;;;;;13.85;nan;100626.91;5089341;28;20402;-70
2022/11/01 06:38:06;;;;;;;14.38;9.18;;;;;;;13.85;nan;100636.69;5071445;28;20044;-70
2022/11/01 06:40:35;;;;;;;14.07;8.23;;;;;;;13.86;nan;100641.84;5088153;28;20096;-70
2022/11/01 06:43:03;;;;;;;12.05;7.93;;;;;;;13.87;nan;100640.88;5089907;28;20032;-70
2022/11/01 06:45:31;;;;;;;15.40;8.88;;;;;;;13.89;nan;100638.84;5070357;28;20040;-70
2022/11/01 06:47:57;;;;;;;13.05;8.00;;;;;;;13.91;nan;100644.81;5089477;28;20032;-70
2022/11/01 06:50:22;;;;;;;12.93;8.35;;;;;;;13.92;nan;100637.66;5083452;28;20028;-70
2022/11/01 06:52:48;;;;;;;13.13;8.40;;;;;;;13.96;nan;100639.00;5089589;28;20032;-70
2022/11/01 06:55:13;;;;;;;12.90;7.75;;;;;;;13.96;nan;100655.75;5088915;28;20419;-69
2022/11/01 06:57:39;;;;;;;15.15;8.23;;;;;;;14.02;nan;100649.78;5071502;28;20530;-69
2022/11/01 07:00:05;;;;;;;13.57;7.68;;;;;;;14.09;nan;100652.59;5070966;28;20290;-69
2022/11/01 07:02:30;;;;;;;13.63;7.78;;;;;;;14.12;nan;100654.88;5085636;28;20039;-70
2022/11/01 07:04:55;;;;;;;10.93;7.38;;;;;;;14.11;nan;100655.91;5090392;28;20259;-70
2022/11/01 07:07:21;;;;;;;11.57;7.28;;;;;;;14.17;nan;100668.50;5089321;28;20044;-70
2022/11/01 07:09:46;;;;;;;14.05;7.60;;;;;;;14.16;nan;100671.34;5087301;28;20036;-69
2022/11/01 07:12:11;;;;;;;10.23;6.93;;;;;;;14.21;nan;100661.84;5083637;28;20055;-70
2022/11/01 07:14:36;;;;;;;9.57;6.80;;;;;;;14.23;nan;100670.47;5079497;28;20514;-69
2022/11/01 07:17:02;;;;;;;9.75;6.55;;;;;;;14.27;nan;100675.44;5090316;28;20328;-69
2022/11/01 07:19:27;;;;;;;9.68;6.32;;;;;;;14.27;nan;100680.75;5088513;28;20048;-70
2022/11/01 07:21:52;;;;;;;9.48;6.45;;;;;;;14.32;nan;100681.91;5096267;28;20031;-70
2022/11/01 07:24:18;;;;;;;13.40;6.18;;;;;;;14.31;nan;100682.09;5074436;28;20052;-70
2022/11/01 07:26:43;;;;;;;11.27;6.50;;;;;;;14.31;nan;100682.09;5089774;28;20127;-70
2022/11/01 07:29:08;;;;;;;9.93;5.90;;;;;;;14.35;nan;100689.56;5070068;28;20109;-70
2022/11/01 07:31:34;;;;;;;9.40;5.70;;;;;;;14.36;nan;100701.03;5083433;28;20032;-70
2022/11/01 07:33:59;;;;;;;9.98;5.57;;;;;;;14.40;nan;100689.84;5089330;28;20081;-70
2022/11/01 07:36:24;;;;;;;12.63;5.90;;;;;;;14.43;nan;100696.66;5085526;28;20555;-70
2022/11/01 07:38:50;;;;;;;9.93;5.60;;;;;;;14.44;nan;100691.19;5086800;28;20328;-70
2022/11/01 07:41:21;;;;;;;9.98;6.05;;;;;;;14.50;99.73;100683.50;5052130;28;20414;-68
2022/11/01 07:43:47;;;;;;;8.32;5.10;;;;;;;14.54;99.86;100695.47;5063435;28;20025;-68
2022/11/01 07:46:12;;;;;;;8.80;5.57;;;;;;;14.50;99.76;100702.13;5061535;28;20033;-68
2022/11/01 07:48:38;;;;;;;11.75;5.80;;;;;;;14.59;99.57;100709.94;5061165;28;20675;-68
2022/11/01 07:51:04;;;;;;;9.55;5.10;;;;;;;14.65;99.35;100711.88;5062753;28;20493;-68
2022/11/01 07:53:30;;;;;;;10.70;5.10;;;;;;;14.68;99.38;100704.56;5060992;28;20120;-68
2022/11/01 07:55:56;;;;;;;12.07;5.45;;;;;;;14.74;98.97;100704.69;5062698;28;20037;-68
2022/11/01 07:58:21;;;;;;;6.70;4.63;;;;;;;14.78;98.72;100708.69;5061740;28;20052;-68
2022/11/01 08:00:47;;;;;;;6.82;4.70;;;;;;;14.86;98.64;100705.13;5060206;28;20052;-69
2022/11/01 08:03:18;;;;;;;7.97;4.60;;;;;;;14.94;98.59;100702.41;5061434;28;20417;-68
2022/11/01 08:05:45;;;;;;;8.40;5.00;;;;;;;15.00;98.01;100696.38;5061637;28;20047;-68
2022/11/01 08:08:11;;;;;;;8.65;4.57;;;;;;;15.06;97.71;100701.03;5059228;28;20025;-68
2022/11/01 08:10:38;;;;;;;8.32;4.63;;;;;;;15.17;97.59;100707.75;5060773;28;20035;-68
2022/11/01 08:13:15;;;;;;;10.60;4.38;;;;;;;15.23;97.24;100709.72;5049203;28;20043;-68
2022/11/01 08:15:40;;;;;;;8.48;4.57;;;;;;;15.30;97.12;100704.50;5058540;28;20124;-68
2022/11/01 08:18:05;;;;;;;6.55;4.50;;;;;;;15.35;96.63;100703.97;5060527;28;20088;-68
2022/11/01 08:20:31;;;;;;;7.45;4.35;;;;;;;15.40;96.24;100710.44;5061774;28;20040;-68
2022/11/01 08:22:56;;;;;;;11.48;4.60;;;;;;;15.42;96.06;100713.75;5060095;28;20033;-68
2022/11/01 08:25:22;;;;;;;6.43;4.22;;;;;;;15.50;96.02;100724.31;5061113;28;20041;-68
2022/11/01 08:27:48;;;;;;;7.85;4.28;;;;;;;15.60;95.45;100731.25;5062075;28;20043;-68
2022/11/01 08:30:15;;;;;;;10.88;4.70;;;;;;;15.63;95.19;100717.56;5055491;28;20032;-68
2022/11/01 08:32:40;;;;;;;6.88;3.80;;;;;;;15.68;95.20;100729.34;5063595;28;20044;-68
2022/11/01 08:35:06;;;;;;;7.13;3.60;;;;;;;15.80;94.85;100736.94;5063808;28;20036;-68
2022/11/01 08:37:31;;;;;;;5.13;3.58;;;;;;;15.85;94.44;100734.53;5068587;28;20176;-68
2022/11/01 08:39:56;;;;;;;7.78;3.60;;;;;;;15.84;94.31;100741.72;5071177;28;20393;-68
2022/11/01 08:42:22;;;;;;;5.55;3.40;;;;;;;15.88;93.94;100731.53;5062470;28;20413;-68
2022/11/01 08:44:47;;;;;;;6.90;3.40;;;;;;;15.80;93.93;100732.44;5067144;28;20029;-68
2022/11/01 08:47:12;;;;;;;4.93;3.40;;;;;;;15.87;94.09;100736.03;5064055;28;20835;-68
2022/11/01 08:49:37;;;;;;;5.85;3.17;;;;;;;15.91;93.78;100745.31;5072227;28;20275;-68
2022/11/01 08:52:04;;;;;;;6.13;3.53;;;;;;;15.97;93.70;100745.59;5055280;28;20192;-68
2022/11/01 08:54:30;;;;;;;5.95;3.33;;;;;;;15.93;93.75;100745.16;5050703;28;20057;-68
2022/11/01 08:56:55;;;;;;;6.13;3.42;;;;;;;15.86;93.73;100738.88;5050333;28;20033;-68
2022/11/01 08:59:21;;;;;;;6.15;3.67;;;;;;;15.79;94.25;100744.09;5057637;28;20033;-68
2022/11/01 09:01:46;;;;;;;6.75;3.30;;;;;;;15.70;94.46;100754.00;5049183;28;20429;-68
2022/11/01 09:04:12;;;;;;;4.97;2.92;;;;;;;15.61;95.06;100747.06;5049439;28;20043;-68
2022/11/01 09:06:38;;;;;;;4.47;2.97;;;;;;;15.63;94.96;100749.53;5048949;28;20064;-69
2022/11/01 09:09:03;;;;;;;6.38;3.05;;;;;;;15.64;94.61;100756.56;5046082;28;20123;-68
2022/11/01 09:11:29;;;;;;;5.68;3.15;;;;;;;15.65;95.08;100761.69;5047598;28;20517;-68
2022/11/01 09:13:56;;;;;;;6.75;3.03;;;;;;;15.65;95.15;100758.19;5048026;28;20398;-68
2022/11/01 09:16:22;;;;;;;4.68;2.55;;;;;;;15.67;95.30;100756.19;5046286;28;20068;-68
2022/11/01 09:18:47;;;;;;;4.65;2.88;;;;;;;15.70;95.15;100755.84;5044121;28;20064;-69
2022/11/01 09:21:13;;;;;;;5.72;3.00;;;;;;;15.71;95.54;100763.69;5044465;28;20044;-68
2022/11/01 09:23:39;;;;;;;6.78;2.97;;;;;;;15.80;95.18;100761.78;5048099;28;20337;-68
2022/11/01 09:26:09;;;;;;;4.05;2.65;;;;;;;15.82;95.23;100774.91;5046572;28;20527;-68
2022/11/01 09:28:35;;;;;;;5.32;2.78;;;;;;;15.80;95.37;100767.09;5053659;28;20032;-68
2022/11/01 09:31:06;;;;;;;5.53;2.70;;;;;;;15.78;95.78;100779.78;5051746;28;20143;-68
2022/11/01 09:33:31;;;;;;;4.53;2.80;;;;;;;15.76;96.13;100787.13;5044379;28;20456;-69
2022/11/01 09:35:57;;;;;;;4.43;2.60;;;;;;;15.77;96.10;100787.97;5045561;28;20195;-68
2022/11/01 09:38:22;;;;;;;6.05;2.67;;;;;;;15.84;95.86;100789.72;5044746;28;21224;-68
2022/11/01 09:41:06;;;;;;;5.03;3.17;;;;;;;15.81;95.97;100789.25;5047391;28;20043;-68
2022/11/01 09:43:35;;;;;;;5.22;3.00;;;;;;;15.75;96.56;100788.13;5042821;28;20033;-68
2022/11/01 09:46:03;;;;;;;5.05;3.38;;;;;;;15.74;96.34;100793.66;5047468;28;20389;-68
2022/11/01 09:48:30;;;;;;;6.10;3.33;;;;;;;15.74;96.39;100794.47;5047045;28;20112;-68
2022/11/01 09:50:57;;;;;;;5.95;3.30;;;;;;;15.77;96.60;100810.09;5045817;28;20048;-68
2022/11/01 09:53:25;;;;;;;6.03;3.20;;;;;;;15.55;96.03;100826.91;5052110;28;20037;-68
2022/11/01 09:56:11;;;;;;;5.00;2.70;;;;;;;15.23;95.89;100832.28;5059137;28;20506;-68
2022/11/01 09:58:47;;;;;;;5.72;2.03;;;;;;;15.00;95.58;100829.53;5045306;28;20037;-68
2022/11/01 10:01:39;;;;;;;5.47;1.75;;;;;;;14.75;94.81;100830.63;5050966;28;20084;-68
2022/11/01 10:04:24;;;;;;;3.28;1.63;;;;;;;14.53;94.44;100834.81;5050156;28;20040;-69
2022/11/01 10:07:10;;;;;;;3.67;1.80;;;;;;;14.40;94.58;100843.34;5048046;28;20522;-68
2022/11/01 10:09:54;;;;;;;3.85;1.90;;;;;;;14.19;94.67;100844.69;5047128;28;20409;-68
2022/11/01 10:12:43;;;;;;;8.85;2.45;;;;;;;14.09;94.79;100849.34;5047748;28;20385;-68
2022/11/01 10:15:31;;;;;;;7.05;1.98;;;;;;;14.08;94.43;100850.34;5045191;28;20040;-68
2022/11/01 10:18:05;;;;;;;3.95;1.90;;;;;;;14.01;93.99;100849.34;5043817;28;20047;-68
2022/11/01 10:20:36;;;;;;;6.07;3.30;;;;;;;14.08;93.06;100855.66;5040617;28;20029;-69
2022/11/01 10:23:02;;;;;;;;;;;;;;;14.28;92.49;100863.28;5045493;28;20040;-68
2022/11/01 10:25:35;;;;;;;4.53;1.58;;;;;;;14.38;90.12;100867.44;5044917;28;20370;-68
2022/11/01 10:28:06;;;;;;;2.65;1.20;;;;;;;14.49;89.49;100868.94;5045068;28;20048;-68
2022/11/01 10:30:41;;;;;;;4.05;1.23;;;;;;;14.59;88.44;100879.44;5050271;28;20123;-68
2022/11/01 10:33:22;;;;;;;4.75;1.15;;;;;;;14.72;88.31;100877.06;5044752;28;20036;-68
2022/11/01 10:36:01;;;;;;;2.22;1.25;;;;;;;14.98;86.89;100882.13;5044705;28;20029;-68
2022/11/01 10:38:39;;;;;;;3.00;1.20;;;;;;;15.18;84.47;100885.25;5046322;28;20033;-69
2022/11/01 10:41:14;;;;;;;3.63;1.00;;;;;;;15.40;84.67;100882.81;5039467;28;20501;-69
2022/11/01 10:43:44;;;;;;;4.25;1.17;;;;;;;15.64;84.21;100876.50;5043695;28;20063;-68
2022/11/01 10:46:16;;;;;;;3.50;1.15;;;;;;;15.96;84.20;100877.31;5043155;28;20124;-69
2022/11/01 10:48:46;;;;;;;3.10;1.25;;;;;;;16.41;81.41;100873.75;5043617;28;20548;-69
2022/11/01 10:51:15;;;;;;;3.40;1.35;;;;;;;16.74;79.40;100874.25;5045165;28;20436;-68
2022/11/01 10:53:49;;;;;;;3.47;1.05;;;;;;;17.95;77.12;100873.88;5044430;28;20035;-68
2022/11/01 10:56:18;;;;;;;3.90;1.40;;;;;;;19.42;71.20;100879.13;5044484;28;20044;-69
2022/11/01 10:58:50;;;;;;;3.15;1.08;;;;;;;20.19;69.07;100876.19;5043255;28;20037;-69
2022/11/01 11:01:21;;;;;;;2.13;0.82;;;;;;;20.74;66.06;100876.81;5044493;28;20037;-69
2022/11/01 11:03:47;;;;;;;1.63;0.80;;;;;;;20.97;68.20;100868.25;5043937;28;21789;-69
2022/11/01 11:06:17;;;;;;;1.95;0.70;;;;;;;20.78;70.99;100869.97;5042549;28;20036;-69
2022/11/01 11:08:47;;;;;;;1.30;0.70;;;;;;;20.46;73.92;100863.59;5045346;28;20041;-69
2022/11/01 11:11:15;;;;;;;2.58;0.80;;;;;;;20.36;75.99;100864.03;5049314;28;20036;-70
2022/11/01 11:13:48;;;;;;;2.67;0.82;;;;;;;20.32;76.86;100854.72;5044303;28;20041;-69
2022/11/01 11:16:39;;;;;;;1.83;0.90;;;;;;;19.93;73.98;100857.22;5043876;28;20121;-70
2022/11/01 11:19:07;;;;;;;3.58;0.80;;;;;;;19.78;72.36;100853.06;5041721;28;20083;-69
2022/11/01 11:21:33;;;;;;;4.30;1.48;;;;;;;19.71;68.79;100858.41;5043387;28;20045;-69
2022/11/01 11:23:59;;;;;;;1.65;0.70;;;;;;;19.57;72.77;100862.06;5043358;28;20032;-70
2022/11/01 11:26:26;;;;;;;3.42;0.93;;;;;;;19.49;70.62;100858.53;5041325;28;20641;-69
2022/11/01 11:28:55;;;;;;;2.60;0.90;;;;;;;19.35;69.53;100854.16;5046600;28;20051;-69
2022/11/01 11:31:24;;;;;;;1.23;0.60;;;;;;;19.15;69.44;100855.97;5044336;28;20402;-69
2022/11/01 11:33:52;;;;;;;1.67;0.67;;;;;;;;;;5042906;28;20466;-69
2022/11/01 11:36:24;;;;;;;2.85;0.80;;;;;;;;;;5043000;28;20937;-69
2022/11/01 11:38:50;;;;;;;2.05;0.90;;;;;;;19.09;nan;100683.34;5043630;28;20531;-68
2022/11/01 11:41:32;;;;;;;1.80;0.90;;;;;;;;;;5041775;28;20037;-69
2022/11/01 11:43:58;;;;;;;2.70;0.98;;;;;;;18.37;nan;100674.03;5044261;28;20037;-69
2022/11/01 11:46:24;;;;;;;5.18;1.20;;;;;;;;;;5044780;28;20516;-69